Terminal Aerodrome Forecast
Issued by NWS Wilmington, OH

Home | Current Version | Previous Version | Text Only | Print | Product List | Glossary On
Versions: 1 2 3 4 5 6 7 8 9 10 11 12 13 14 15 16 17 18 19 20 21 22 23 24 25 26 27 28
000
FTUS41 KILN 312102 AAA
TAFCVG
TAF AMD
KCVG 312102Z 3121/0124 28009KT P6SM SCT060
     FM010600 29003KT P6SM SKC
     FM011600 30009KT P6SM SCT060
     FM012200 29008KT P6SM BKN060=

USA.gov is the U.S. government's official web portal to all federal, state and local government web resources and services.